createdAt,value
2022-12-04T00:00:10.725Z,58.42
2022-12-04T00:02:37.452Z,60.42
2022-12-04T00:05:06.398Z,55.75
2022-12-04T00:07:33.401Z,60.13
2022-12-04T00:10:00.366Z,60.83
2022-12-04T00:12:27.321Z,55.38
2022-12-04T00:15:23.805Z,64.10
2022-12-04T00:17:40.916Z,60.05
2022-12-04T00:20:08.179Z,65.85
2022-12-04T00:22:34.765Z,57.83
2022-12-04T00:25:01.289Z,62.13
2022-12-04T00:27:27.800Z,60.78
2022-12-04T00:29:54.654Z,64.10
2022-12-04T00:32:21.359Z,62.88
2022-12-04T00:34:47.898Z,52.17
2022-12-04T00:37:14.384Z,57.88
2022-12-04T00:39:40.977Z,60.10
2022-12-04T00:42:07.457Z,64.25
2022-12-04T00:44:33.975Z,58.35
2022-12-04T00:47:00.468Z,61.90
2022-12-04T00:49:27.155Z,54.78
2022-12-04T00:51:53.716Z,61.35
2022-12-04T00:54:20.242Z,51.50
2022-12-04T00:56:46.863Z,68.55
2022-12-04T00:59:13.512Z,59.95
2022-12-04T01:01:40.238Z,58.65
2022-12-04T01:04:09.518Z,61.15
2022-12-04T01:06:36.246Z,49.20
2022-12-04T01:09:05.029Z,62.15
2022-12-04T01:11:31.765Z,57.58
2022-12-04T01:13:59.894Z,57.95
2022-12-04T01:16:29.997Z,59.97
2022-12-04T01:18:56.729Z,58.13
2022-12-04T01:21:34.742Z,60.28
2022-12-04T01:24:05.520Z,60.92
2022-12-04T01:26:32.234Z,65.15
2022-12-04T01:28:59.221Z,73.65
2022-12-04T01:31:25.962Z,62.35
2022-12-04T01:33:53.062Z,67.63
2022-12-04T01:36:23.582Z,63.22
2022-12-04T01:38:50.813Z,69.50
2022-12-04T01:41:21.081Z,67.63
2022-12-04T01:44:14.345Z,68.22
2022-12-04T01:46:46.160Z,63.17
2022-12-04T01:49:25.581Z,65.90
2022-12-04T01:51:59.033Z,66.93
2022-12-04T01:54:32.603Z,64.03
2022-12-04T01:57:14.975Z,62.63
2022-12-04T02:00:13.341Z,69.82
2022-12-04T02:02:43.306Z,59.55
2022-12-04T02:05:15.034Z,65.70
2022-12-04T02:07:44.396Z,61.42
2022-12-04T02:10:12.048Z,62.05
2022-12-04T02:12:58.849Z,61.47
2022-12-04T02:15:42.556Z,71.53
2022-12-04T02:18:31.410Z,62.70
2022-12-04T02:21:16.606Z,68.57
2022-12-04T02:24:04.346Z,68.63
2022-12-04T02:26:54.068Z,63.10
2022-12-04T02:29:20.546Z,65.10
2022-12-04T02:32:03.390Z,64.80
2022-12-04T02:34:39.239Z,59.35
2022-12-04T02:37:30.612Z,57.08
2022-12-04T02:40:14.753Z,58.85
2022-12-04T02:42:45.421Z,52.47
2022-12-04T02:45:21.007Z,55.67
2022-12-04T02:47:47.712Z,66.00
2022-12-04T02:50:18.480Z,68.05
2022-12-04T02:53:00.456Z,55.20
2022-12-04T02:58:00.236Z,52.95
2022-12-04T03:00:29.279Z,65.72
2022-12-04T03:02:55.865Z,56.83
2022-12-04T03:05:50.465Z,66.25
2022-12-04T03:08:22.946Z,66.38
2022-12-04T03:10:53.574Z,56.15
2022-12-04T03:13:29.007Z,61.25
2022-12-04T03:16:10.776Z,64.28
2022-12-04T03:18:57.000Z,65.07
2022-12-04T03:21:29.642Z,58.88
2022-12-04T03:24:34.477Z,59.35
2022-12-04T03:27:11.067Z,53.75
2022-12-04T03:29:55.286Z,46.78
2022-12-04T03:32:52.250Z,55.47
2022-12-04T03:35:27.195Z,64.00
2022-12-04T03:38:03.349Z,65.05
2022-12-04T03:40:41.591Z,61.00
2022-12-04T03:43:20.640Z,60.25
2022-12-04T03:45:59.818Z,61.38
2022-12-04T03:48:42.779Z,70.30
2022-12-04T03:51:18.417Z,69.35
2022-12-04T03:53:54.250Z,57.10
2022-12-04T03:56:26.404Z,58.13
2022-12-04T03:58:59.305Z,61.00
2022-12-04T04:01:34.354Z,68.60
2022-12-04T04:04:05.160Z,69.20
2022-12-04T04:06:46.883Z,60.75
2022-12-04T04:09:19.622Z,69.80
2022-12-04T04:11:51.087Z,55.60
2022-12-04T04:14:43.676Z,60.88
2022-12-04T04:17:38.237Z,63.03
2022-12-04T04:20:31.467Z,60.38
2022-12-04T04:23:20.207Z,62.45
2022-12-04T04:25:47.446Z,62.92
2022-12-04T04:28:31.740Z,65.10
2022-12-04T04:31:26.265Z,58.20
2022-12-04T04:34:14.283Z,62.53
2022-12-04T04:37:05.731Z,53.47
2022-12-04T04:39:42.366Z,57.42
2022-12-04T04:42:17.058Z,63.95
2022-12-04T04:44:50.926Z,58.67
2022-12-04T04:47:26.224Z,54.35
2022-12-04T04:49:56.025Z,63.60
2022-12-04T04:52:24.258Z,58.28
2022-12-04T04:54:50.789Z,60.20
2022-12-04T04:57:28.491Z,58.35
2022-12-04T04:59:55.328Z,60.97
2022-12-04T05:02:22.208Z,61.08
2022-12-04T05:04:48.709Z,63.67
2022-12-04T05:07:15.248Z,59.67
2022-12-04T05:09:41.947Z,59.05
2022-12-04T05:12:09.444Z,62.45
2022-12-04T05:14:35.972Z,64.05
2022-12-04T05:17:09.259Z,64.68
2022-12-04T05:19:54.505Z,62.10
2022-12-04T05:22:27.066Z,68.97
2022-12-04T05:24:53.995Z,68.80
2022-12-04T05:27:21.706Z,63.83
2022-12-04T05:29:49.089Z,66.30
2022-12-04T05:32:15.781Z,53.33
2022-12-04T05:34:42.365Z,64.82
2022-12-04T05:37:08.902Z,64.05
2022-12-04T05:39:35.740Z,64.35
2022-12-04T05:42:02.306Z,63.90
2022-12-04T05:44:28.867Z,63.53
2022-12-04T05:46:55.472Z,60.17
2022-12-04T05:49:22.109Z,61.53
2022-12-04T05:51:50.610Z,58.20
2022-12-04T05:54:18.521Z,63.42
2022-12-04T05:56:45.538Z,61.00
2022-12-04T05:59:12.167Z,55.28
2022-12-04T06:01:39.051Z,62.03
2022-12-04T06:04:05.685Z,59.83
2022-12-04T06:06:32.654Z,57.88
2022-12-04T06:09:00.152Z,55.08
2022-12-04T06:11:30.673Z,57.35
2022-12-04T06:13:58.909Z,58.13
2022-12-04T06:16:31.249Z,55.28
2022-12-04T06:19:01.151Z,58.42
2022-12-04T06:21:30.205Z,59.40
2022-12-04T06:23:57.444Z,62.70
2022-12-04T06:26:25.090Z,63.17
2022-12-04T06:28:56.950Z,61.13
2022-12-04T06:31:25.052Z,59.42
2022-12-04T06:33:53.396Z,57.10
2022-12-04T06:36:23.716Z,67.88
2022-12-04T06:38:51.234Z,61.03
2022-12-04T06:41:19.806Z,66.43
2022-12-04T06:43:46.517Z,61.22
2022-12-04T06:46:16.059Z,60.47
2022-12-04T06:51:14.163Z,67.28
2022-12-04T06:53:41.059Z,64.78
2022-12-04T06:56:11.304Z,67.15
2022-12-04T06:58:38.034Z,62.10
2022-12-04T07:01:09.728Z,65.13
2022-12-04T07:03:36.947Z,65.80
2022-12-04T07:06:17.357Z,70.90
2022-12-04T07:08:45.779Z,67.00
2022-12-04T07:11:13.719Z,68.50
2022-12-04T07:13:40.768Z,63.92
2022-12-04T07:16:10.879Z,66.20
2022-12-04T07:18:37.944Z,60.88
2022-12-04T07:21:07.106Z,60.10
2022-12-04T07:23:34.223Z,57.35
2022-12-04T07:26:12.079Z,64.40
2022-12-04T07:28:39.603Z,61.28
2022-12-04T07:31:08.401Z,64.05
2022-12-04T07:33:34.975Z,62.53
2022-12-04T07:36:04.371Z,62.28
2022-12-04T07:38:31.756Z,71.60
2022-12-04T07:41:03.677Z,56.70
2022-12-04T07:43:30.795Z,65.45
2022-12-04T07:46:03.324Z,66.22
2022-12-04T07:48:33.335Z,70.55
2022-12-04T07:51:11.569Z,75.32
2022-12-04T07:53:39.033Z,65.93
2022-12-04T07:56:06.362Z,67.55
2022-12-04T07:58:33.770Z,70.57
2022-12-04T08:01:21.766Z,66.15
2022-12-04T08:06:18.785Z,58.03
2022-12-04T08:08:46.230Z,75.53
2022-12-04T08:11:15.510Z,69.55
2022-12-04T08:13:42.126Z,71.35
2022-12-04T08:16:10.240Z,68.07
2022-12-04T08:18:37.002Z,68.95
2022-12-04T08:21:09.475Z,66.40
2022-12-04T08:23:37.001Z,58.22
2022-12-04T08:26:04.835Z,67.72
2022-12-04T08:28:32.104Z,68.75
2022-12-04T08:31:26.297Z,69.55
2022-12-04T08:36:21.179Z,61.17
2022-12-04T08:38:48.672Z,55.90
2022-12-04T08:41:18.208Z,58.75
2022-12-04T08:46:13.792Z,62.53
2022-12-04T08:48:40.613Z,50.15
2022-12-04T08:51:08.324Z,61.78
2022-12-04T08:53:38.894Z,59.55
2022-12-04T08:56:05.696Z,59.28
2022-12-04T08:58:32.260Z,64.18
2022-12-04T09:01:13.360Z,58.38
2022-12-04T09:03:40.965Z,67.65
2022-12-04T09:06:09.579Z,60.67
2022-12-04T09:08:36.753Z,59.97
2022-12-04T09:11:12.020Z,60.30
2022-12-04T09:13:39.784Z,63.75
2022-12-04T09:16:16.038Z,65.13
2022-12-04T09:18:43.168Z,59.03
2022-12-04T09:21:12.580Z,55.03
2022-12-04T09:23:40.446Z,63.85
2022-12-04T09:26:20.242Z,63.33
2022-12-04T09:28:46.969Z,58.80
2022-12-04T09:31:13.779Z,63.45
2022-12-04T09:33:40.474Z,64.60
2022-12-04T09:36:07.598Z,72.05
2022-12-04T09:38:34.124Z,64.00
2022-12-04T09:41:16.448Z,61.58
2022-12-04T09:44:02.085Z,65.47
2022-12-04T09:46:37.456Z,57.78
2022-12-04T09:49:14.417Z,57.38
2022-12-04T09:51:45.035Z,54.58
2022-12-04T09:54:19.715Z,64.43
2022-12-04T09:56:55.431Z,58.78
2022-12-04T09:59:26.050Z,55.95
2022-12-04T10:02:15.575Z,56.30
2022-12-04T10:04:42.324Z,56.97
2022-12-04T10:07:11.869Z,59.38
2022-12-04T10:12:22.447Z,58.85
2022-12-04T10:14:54.841Z,62.35
2022-12-04T10:17:43.285Z,60.33
2022-12-04T10:20:18.634Z,50.45
2022-12-04T10:22:48.164Z,58.75
2022-12-04T10:25:19.930Z,52.53
2022-12-04T10:28:02.738Z,57.75
2022-12-04T10:30:32.485Z,57.70
2022-12-04T10:33:23.538Z,63.45
2022-12-04T10:35:53.833Z,56.50
2022-12-04T10:38:31.864Z,56.90
2022-12-04T10:41:07.659Z,62.47
2022-12-04T10:43:43.141Z,62.15
2022-12-04T10:46:14.691Z,60.75
2022-12-04T10:48:44.068Z,57.45
2022-12-04T10:51:18.309Z,63.45
2022-12-04T10:53:46.519Z,59.30
2022-12-04T10:56:17.935Z,60.25
2022-12-04T10:59:04.237Z,61.95
2022-12-04T11:01:33.434Z,58.00
2022-12-04T11:04:19.574Z,56.58
2022-12-04T11:06:46.222Z,59.13
2022-12-04T11:09:24.370Z,57.47
2022-12-04T11:11:51.882Z,54.17
2022-12-04T11:14:23.211Z,62.05
2022-12-04T11:17:01.634Z,50.38
2022-12-04T11:19:33.827Z,59.70
2022-12-04T11:22:18.744Z,56.42
2022-12-04T11:24:55.979Z,57.83
2022-12-04T11:27:34.205Z,55.33
2022-12-04T11:30:03.350Z,50.38
2022-12-04T11:32:33.819Z,56.13
2022-12-04T11:35:07.359Z,52.00
2022-12-04T11:41:28.201Z,58.35
2022-12-04T11:43:59.938Z,56.30
2022-12-04T11:46:30.936Z,55.15
2022-12-04T11:48:58.191Z,57.63
2022-12-04T11:51:42.836Z,55.58
2022-12-04T11:54:27.461Z,51.55
2022-12-04T11:57:04.724Z,53.75
2022-12-04T11:59:58.936Z,51.42
2022-12-04T12:02:50.337Z,60.05
2022-12-04T12:05:38.492Z,55.00
2022-12-04T12:08:13.830Z,55.05
2022-12-04T12:10:59.577Z,56.40
2022-12-04T12:13:38.252Z,55.40
2022-12-04T12:16:16.675Z,54.67
2022-12-04T12:19:29.551Z,60.63
2022-12-04T12:22:14.354Z,58.13
2022-12-04T12:24:55.529Z,54.72
2022-12-04T12:27:22.223Z,52.05
2022-12-04T12:29:48.915Z,55.45
2022-12-04T12:32:42.678Z,48.28
2022-12-04T12:35:27.218Z,53.30
2022-12-04T12:37:56.127Z,51.50
2022-12-04T12:40:47.516Z,51.63
2022-12-04T12:43:21.128Z,55.08
2022-12-04T12:45:56.688Z,48.53
2022-12-04T12:48:26.116Z,50.28
2022-12-04T12:51:29.953Z,47.67
2022-12-04T12:54:04.950Z,53.05
2022-12-04T12:56:38.465Z,54.80
2022-12-04T12:59:12.647Z,56.35
2022-12-04T13:01:58.715Z,50.88
2022-12-04T13:04:44.210Z,54.05
2022-12-04T13:07:16.747Z,53.58
2022-12-04T13:10:01.954Z,54.47
2022-12-04T13:12:29.509Z,49.55
2022-12-04T13:14:56.085Z,46.95
2022-12-04T13:17:33.029Z,48.47
2022-12-04T13:20:10.200Z,50.95
2022-12-04T13:23:14.548Z,42.88
2022-12-04T13:26:00.785Z,47.70
2022-12-04T13:28:49.703Z,41.33
2022-12-04T13:31:37.858Z,39.60
2022-12-04T13:34:04.429Z,40.60
2022-12-04T13:36:57.639Z,44.50
2022-12-04T13:40:08.930Z,39.55
2022-12-04T13:42:35.672Z,33.42
2022-12-04T13:45:25.229Z,33.85
2022-12-04T13:48:03.132Z,37.42
2022-12-04T13:50:35.323Z,34.10
2022-12-04T13:53:02.489Z,33.25
2022-12-04T13:55:35.652Z,33.95
2022-12-04T13:58:11.474Z,31.63
2022-12-04T14:00:43.188Z,31.15
2022-12-04T14:03:49.964Z,29.58
2022-12-04T14:06:27.519Z,36.45
2022-12-04T14:09:03.557Z,37.92
2022-12-04T14:11:42.037Z,32.45
2022-12-04T14:14:24.421Z,33.33
2022-12-04T14:16:55.102Z,35.58
2022-12-04T14:19:31.006Z,30.48
2022-12-04T14:22:00.941Z,33.17
2022-12-04T14:24:39.038Z,30.10
2022-12-04T14:27:42.836Z,27.38
2022-12-04T14:30:38.369Z,30.45
2022-12-04T14:33:37.336Z,43.60
2022-12-04T14:36:11.347Z,53.35
2022-12-04T14:38:45.913Z,51.35
2022-12-04T14:41:12.685Z,45.53
2022-12-04T14:43:41.298Z,57.97
2022-12-04T14:46:30.461Z,59.25
2022-12-04T14:49:18.819Z,57.10
2022-12-04T14:51:56.631Z,55.72
2022-12-04T14:54:26.791Z,64.13
2022-12-04T14:57:12.068Z,66.97
2022-12-04T14:59:48.272Z,61.50
2022-12-04T15:02:20.103Z,58.00
2022-12-04T15:04:48.835Z,67.15
2022-12-04T15:07:21.487Z,63.45
2022-12-04T15:10:17.762Z,67.35
2022-12-04T15:12:57.208Z,69.80
2022-12-04T15:15:29.791Z,70.53
2022-12-04T15:17:56.332Z,73.90
2022-12-04T15:20:23.270Z,68.78
2022-12-04T15:22:49.992Z,68.70
2022-12-04T15:25:24.206Z,64.25
2022-12-04T15:27:54.015Z,59.75
2022-12-04T15:30:23.797Z,60.20
2022-12-04T15:32:53.390Z,58.70
2022-12-04T15:35:29.662Z,65.85
2022-12-04T15:37:56.605Z,72.20
2022-12-04T15:40:26.671Z,73.00
2022-12-04T15:42:53.987Z,65.10
2022-12-04T15:45:20.430Z,75.55
2022-12-04T15:47:46.932Z,71.15
2022-12-04T15:50:13.411Z,71.80
2022-12-04T15:52:51.217Z,69.93
2022-12-04T15:55:19.369Z,68.22
2022-12-04T15:58:02.410Z,65.72
2022-12-04T16:00:32.739Z,61.70
2022-12-04T16:03:00.751Z,68.93
2022-12-04T16:05:35.542Z,66.45
2022-12-04T16:08:18.868Z,62.33
2022-12-04T16:11:00.195Z,65.45
2022-12-04T16:13:36.338Z,61.78
2022-12-04T16:16:14.207Z,61.08
2022-12-04T16:18:40.997Z,55.50
2022-12-04T16:21:16.585Z,57.03
2022-12-04T16:23:43.714Z,56.50
2022-12-04T16:26:14.469Z,67.68
2022-12-04T16:28:43.479Z,61.10
2022-12-04T16:31:14.150Z,75.00
2022-12-04T16:33:40.963Z,72.53
2022-12-04T16:36:10.534Z,65.70
2022-12-04T16:41:07.636Z,66.95
2022-12-04T16:43:34.135Z,63.90
2022-12-04T16:46:01.764Z,59.17
2022-12-04T16:48:29.624Z,62.38
2022-12-04T16:50:56.234Z,65.57
2022-12-04T16:53:23.116Z,69.15
2022-12-04T16:55:51.468Z,68.85
2022-12-04T16:58:19.731Z,62.80
2022-12-04T17:00:54.947Z,59.50
2022-12-04T17:03:28.396Z,64.32
2022-12-04T17:06:14.932Z,72.13
2022-12-04T17:08:41.706Z,60.30
2022-12-04T17:11:12.379Z,61.20
2022-12-04T17:13:38.920Z,54.00
2022-12-04T17:16:05.523Z,68.88
2022-12-04T17:18:32.133Z,63.47
2022-12-04T17:20:58.918Z,62.03
2022-12-04T17:23:25.619Z,61.60
2022-12-04T17:25:52.300Z,64.47
2022-12-04T17:28:18.868Z,63.97
2022-12-04T17:30:46.597Z,63.25
2022-12-04T17:33:13.280Z,66.40
2022-12-04T17:35:44.064Z,60.03
2022-12-04T17:38:10.683Z,61.72
2022-12-04T17:40:37.511Z,56.00
2022-12-04T17:43:04.318Z,55.50
2022-12-04T17:45:31.004Z,63.58
2022-12-04T17:48:00.294Z,57.33
2022-12-04T17:50:27.021Z,50.75
2022-12-04T17:52:53.705Z,57.80
2022-12-04T17:55:20.240Z,59.45
2022-12-04T17:57:49.297Z,52.63
2022-12-04T18:00:16.118Z,59.72
2022-12-04T18:02:42.832Z,56.35
2022-12-04T18:05:10.066Z,57.08
2022-12-04T18:07:36.653Z,57.83
2022-12-04T18:10:03.528Z,49.28
2022-12-04T18:12:30.275Z,52.20
2022-12-04T18:14:56.870Z,45.92
2022-12-04T18:17:23.660Z,42.72
2022-12-04T18:19:52.624Z,36.95
2022-12-04T18:22:19.359Z,30.38
2022-12-04T18:24:45.942Z,24.00
2022-12-04T18:27:12.576Z,24.90
2022-12-04T18:29:42.545Z,24.05
2022-12-04T18:32:09.318Z,22.33
2022-12-04T18:34:35.961Z,23.17
2022-12-04T18:37:02.542Z,19.58
2022-12-04T18:39:29.155Z,21.42
2022-12-04T18:41:56.940Z,19.92
2022-12-04T18:44:24.450Z,20.38
2022-12-04T18:46:51.139Z,17.23
2022-12-04T18:49:17.621Z,20.98
2022-12-04T18:51:49.660Z,17.88
2022-12-04T18:54:22.441Z,18.67
2022-12-04T18:56:49.643Z,17.25
2022-12-04T18:59:22.789Z,19.42
2022-12-04T19:01:53.225Z,18.58
2022-12-04T19:04:22.085Z,18.75
2022-12-04T19:06:51.511Z,17.35
2022-12-04T19:11:47.009Z,19.10
2022-12-04T19:14:22.679Z,16.83
2022-12-04T19:16:50.272Z,18.23
2022-12-04T19:19:17.100Z,11.98
2022-12-04T19:21:44.529Z,15.63
2022-12-04T19:24:11.501Z,17.50
2022-12-04T19:26:38.334Z,8.90
2022-12-04T19:29:06.390Z,17.83
2022-12-04T19:31:35.069Z,18.15
2022-12-04T19:34:02.221Z,19.83
2022-12-04T19:36:31.032Z,17.02
2022-12-04T19:38:58.276Z,20.02
2022-12-04T19:41:27.275Z,18.73
2022-12-04T19:44:00.863Z,13.40
2022-12-04T19:46:30.494Z,13.55
2022-12-04T19:49:01.681Z,16.45
2022-12-04T19:51:31.991Z,16.65
2022-12-04T19:53:59.059Z,14.65
2022-12-04T19:56:27.197Z,14.95
2022-12-04T19:58:56.077Z,17.98
2022-12-04T20:01:28.681Z,20.30
2022-12-04T20:03:56.537Z,17.60
2022-12-04T20:06:27.800Z,17.38
2022-12-04T20:08:59.811Z,15.60
2022-12-04T20:11:28.276Z,13.65
2022-12-04T20:13:56.859Z,16.80
2022-12-04T20:16:28.319Z,19.33
2022-12-04T20:18:54.980Z,14.90
2022-12-04T20:21:26.315Z,15.93
2022-12-04T20:23:54.026Z,20.30
2022-12-04T20:26:26.335Z,21.27
2022-12-04T20:28:55.326Z,18.00
2022-12-04T20:31:28.300Z,18.35
2022-12-04T20:33:56.681Z,17.38
2022-12-04T20:36:25.942Z,20.38
2022-12-04T20:38:58.236Z,16.08
2022-12-04T20:41:26.935Z,14.27
2022-12-04T20:43:53.516Z,20.55
2022-12-04T20:46:21.524Z,19.90
2022-12-04T20:48:49.349Z,17.73
2022-12-04T20:51:20.280Z,11.38
2022-12-04T20:53:48.582Z,17.70
2022-12-04T20:56:16.142Z,13.13
2022-12-04T20:58:43.472Z,18.17
2022-12-04T21:01:18.951Z,12.77
2022-12-04T21:06:16.892Z,18.73
2022-12-04T21:09:01.870Z,20.25
2022-12-04T21:11:31.798Z,14.90
2022-12-04T21:14:18.674Z,17.15
2022-12-04T21:16:45.999Z,16.73
2022-12-04T21:19:14.803Z,21.13
2022-12-04T21:21:41.453Z,17.65
2022-12-04T21:24:11.459Z,16.02
2022-12-04T21:26:38.093Z,18.00
2022-12-04T21:29:06.495Z,12.23
2022-12-04T21:31:34.818Z,16.73
2022-12-04T21:34:03.889Z,17.40
2022-12-04T21:36:31.198Z,14.20
2022-12-04T21:38:58.298Z,9.02
2022-12-04T21:41:43.580Z,12.40
2022-12-04T21:44:13.407Z,15.02
2022-12-04T21:46:40.530Z,16.45
2022-12-04T21:49:07.875Z,18.90
2022-12-04T21:54:21.600Z,13.70
2022-12-04T21:56:48.386Z,11.38
2022-12-04T21:59:18.130Z,16.13
2022-12-04T22:01:44.799Z,12.05
2022-12-04T22:04:11.659Z,13.23
2022-12-04T22:06:40.753Z,13.75
2022-12-04T22:09:10.022Z,15.10
2022-12-04T22:11:37.015Z,11.00
2022-12-04T22:14:04.491Z,13.88
2022-12-04T22:16:32.851Z,14.57
2022-12-04T22:19:01.246Z,13.27
2022-12-04T22:21:28.579Z,11.55
2022-12-04T22:23:59.876Z,13.63
2022-12-04T22:26:28.121Z,13.82
2022-12-04T22:28:55.271Z,10.18
2022-12-04T22:31:25.003Z,16.10
2022-12-04T22:33:53.328Z,16.30
2022-12-04T22:36:26.197Z,13.48
2022-12-04T22:39:08.709Z,7.57
2022-12-04T22:41:35.739Z,11.45
2022-12-04T22:44:02.288Z,9.80
2022-12-04T22:46:29.009Z,14.80
2022-12-04T22:48:55.639Z,15.27
2022-12-04T22:51:22.698Z,13.50
2022-12-04T22:53:54.471Z,14.88
2022-12-04T22:56:29.104Z,14.80
2022-12-04T22:58:56.332Z,15.35
2022-12-04T23:01:28.863Z,16.02
2022-12-04T23:03:56.339Z,15.25
2022-12-04T23:06:24.900Z,11.77
2022-12-04T23:09:06.333Z,13.45
2022-12-04T23:11:33.437Z,14.52
2022-12-04T23:14:04.729Z,12.48
2022-12-04T23:16:33.258Z,15.80
2022-12-04T23:19:00.209Z,13.52
2022-12-04T23:21:28.053Z,15.18
2022-12-04T23:23:55.722Z,14.40
2022-12-04T23:26:29.510Z,14.73
2022-12-04T23:28:56.685Z,16.83
2022-12-04T23:31:23.740Z,19.98
2022-12-04T23:33:50.438Z,12.23
2022-12-04T23:36:17.393Z,19.48
2022-12-04T23:38:44.997Z,17.10
2022-12-04T23:41:20.073Z,17.42
2022-12-04T23:43:47.881Z,15.27
2022-12-04T23:46:18.049Z,21.20
2022-12-04T23:48:46.867Z,16.52
2022-12-04T23:51:15.771Z,13.63
2022-12-04T23:53:42.983Z,17.40
2022-12-04T23:56:14.129Z,18.45
2022-12-04T23:58:41.543Z,20.33
